createdAt,value
2023-03-29T07:46:58.791Z,24.77
2023-03-29T09:14:56.632Z,25.95
2023-03-29T09:22:56.277Z,26.00
2023-03-29T09:26:58.144Z,26.02
2023-03-29T09:34:56.129Z,26.09
2023-03-29T09:42:55.944Z,25.99
2023-03-29T09:50:56.615Z,25.96
2023-03-29T09:58:56.134Z,25.93
2023-03-29T10:06:55.619Z,25.92
2023-03-29T10:10:56.648Z,25.92
2023-03-29T10:14:56.627Z,25.93
2023-03-29T10:18:56.109Z,25.93
2023-03-29T10:22:56.159Z,25.96
2023-03-29T10:26:56.162Z,25.92
2023-03-29T10:34:55.627Z,25.89
2023-03-29T10:38:56.423Z,25.91
2023-03-29T10:42:56.675Z,25.92
2023-03-29T10:46:56.638Z,25.93
2023-03-29T10:50:57.146Z,25.96
2023-03-29T10:54:57.166Z,26.00
2023-03-29T10:58:57.164Z,26.02
2023-03-29T11:02:57.251Z,26.05
2023-03-29T11:06:57.146Z,26.06
2023-03-29T11:10:57.142Z,26.06
2023-03-29T11:14:57.184Z,26.09
2023-03-29T11:22:56.645Z,26.15
2023-03-29T11:30:56.498Z,25.92
2023-03-29T11:38:56.650Z,25.74
2023-03-29T11:46:56.530Z,25.64
2023-03-29T11:54:56.465Z,25.53
2023-03-29T12:02:56.793Z,25.48
2023-03-29T12:06:57.159Z,25.45
2023-03-29T12:10:57.174Z,25.44
2023-03-29T12:14:57.169Z,25.51
2023-03-29T12:18:57.208Z,25.55
2023-03-29T12:22:57.169Z,25.60
2023-03-29T12:26:57.077Z,25.67
2023-03-29T12:30:57.173Z,25.71
2023-03-29T12:34:57.705Z,25.74
2023-03-29T12:38:57.682Z,25.78
2023-03-29T12:42:57.687Z,25.78
2023-03-29T12:46:57.493Z,25.84
2023-03-29T12:50:57.720Z,25.85
2023-03-29T12:54:57.685Z,25.84
2023-03-29T12:58:57.691Z,25.71
2023-03-29T13:06:56.717Z,25.58
2023-03-29T13:14:56.190Z,25.47
2023-03-29T13:22:56.222Z,25.38
2023-03-29T13:26:57.237Z,25.33
2023-03-29T13:30:56.840Z,25.33
2023-03-29T13:34:56.687Z,25.27
2023-03-29T13:38:56.620Z,25.22
2023-03-29T13:42:56.519Z,25.20
2023-03-29T13:46:56.740Z,25.13
2023-03-29T13:50:56.712Z,25.16
2023-03-29T13:54:56.249Z,25.12
2023-03-29T13:58:56.206Z,25.12
2023-03-29T14:02:56.277Z,25.12
2023-03-29T14:06:56.224Z,25.15
2023-03-29T14:10:56.271Z,25.12
2023-03-29T14:14:59.323Z,25.13
2023-03-29T14:18:55.711Z,25.09
2023-03-29T14:22:55.731Z,25.06
2023-03-29T14:26:55.363Z,25.02
2023-03-29T14:30:55.219Z,25.02
2023-03-29T14:34:56.213Z,25.00
2023-03-29T14:38:55.721Z,24.98
2023-03-29T14:42:55.745Z,24.99
2023-03-29T14:46:55.733Z,25.00
2023-03-29T14:50:55.442Z,24.99
2023-03-29T14:54:55.726Z,24.96
2023-03-29T14:58:55.548Z,24.98
2023-03-29T15:02:55.692Z,24.93
2023-03-29T15:06:55.735Z,24.96
2023-03-29T15:10:55.712Z,24.92
2023-03-29T15:14:55.812Z,24.92
2023-03-29T15:18:55.889Z,25.00
2023-03-29T15:22:56.233Z,25.02
2023-03-29T15:26:56.030Z,25.02
2023-03-29T15:31:07.297Z,25.02
2023-03-29T15:34:56.006Z,25.03
2023-03-29T15:38:55.885Z,25.02
2023-03-29T15:46:54.736Z,25.02
2023-03-29T15:50:55.564Z,25.06
2023-03-29T15:54:55.750Z,25.02
2023-03-29T15:58:55.377Z,25.03
2023-03-29T16:02:55.308Z,25.02
2023-03-29T16:06:55.175Z,25.00
2023-03-29T16:10:55.068Z,25.00
2023-03-29T16:14:54.979Z,25.02
2023-03-29T16:18:54.888Z,24.99
2023-03-29T16:22:54.751Z,24.99
2023-03-29T16:26:55.917Z,24.98
2023-03-29T16:30:54.796Z,24.96
2023-03-29T16:34:54.913Z,24.93
2023-03-29T16:38:54.941Z,24.93
2023-03-29T16:42:55.030Z,24.96
2023-03-29T16:46:55.125Z,24.92
2023-03-29T16:50:55.330Z,24.90
2023-03-29T16:54:55.299Z,24.90
2023-03-29T16:58:55.397Z,24.90
2023-03-29T17:02:55.491Z,24.90
2023-03-29T17:06:55.601Z,24.90
2023-03-29T17:10:55.734Z,24.86
2023-03-29T17:14:55.769Z,24.85
2023-03-29T17:18:55.874Z,24.83
2023-03-29T17:22:56.031Z,24.86
2023-03-29T17:26:55.902Z,24.88
2023-03-29T17:30:56.051Z,24.85
2023-03-29T17:34:56.068Z,24.86
2023-03-29T17:42:55.343Z,24.83
2023-03-29T17:50:55.597Z,24.79
2023-03-29T17:58:55.895Z,24.81
2023-03-29T18:06:56.154Z,24.82
2023-03-29T18:14:56.416Z,24.81
2023-03-29T18:22:56.708Z,24.79
2023-03-29T18:42:56.841Z,24.79
2023-03-29T18:50:56.829Z,24.78
2023-03-29T18:58:56.855Z,24.79
2023-03-29T19:06:56.933Z,24.74
2023-03-29T19:14:57.211Z,24.78
2023-03-29T23:07:00.398Z,24.62
